sensor_id;sensor_type;location;lat;lon;timestamp;P1;durP1;ratioP1;P2;durP2;ratioP2
7477;SDS011;3780;42.424;25.636;2024-03-22T00:01:41;9.25;;;6.82;;
7477;SDS011;3780;42.424;25.636;2024-03-22T00:04:07;9.18;;;6.97;;
7477;SDS011;3780;42.424;25.636;2024-03-22T00:06:32;8.30;;;6.63;;
7477;SDS011;3780;42.424;25.636;2024-03-22T00:08:57;6.88;;;5.78;;
7477;SDS011;3780;42.424;25.636;2024-03-22T00:11:23;6.43;;;5.13;;
7477;SDS011;3780;42.424;25.636;2024-03-22T00:13:48;5.03;;;3.50;;
7477;SDS011;3780;42.424;25.636;2024-03-22T00:16:13;4.43;;;3.47;;
7477;SDS011;3780;42.424;25.636;2024-03-22T00:18:38;5.57;;;3.20;;
7477;SDS011;3780;42.424;25.636;2024-03-22T00:21:04;3.00;;;2.47;;
7477;SDS011;3780;42.424;25.636;2024-03-22T00:23:29;2.97;;;2.45;;
7477;SDS011;3780;42.424;25.636;2024-03-22T00:25:55;3.40;;;2.30;;
7477;SDS011;3780;42.424;25.636;2024-03-22T00:28:21;3.90;;;2.28;;
7477;SDS011;3780;42.424;25.636;2024-03-22T00:30:46;2.97;;;2.40;;
7477;SDS011;3780;42.424;25.636;2024-03-22T00:33:11;2.15;;;1.83;;
7477;SDS011;3780;42.424;25.636;2024-03-22T00:35:36;2.60;;;1.63;;
7477;SDS011;3780;42.424;25.636;2024-03-22T00:38:02;3.13;;;2.00;;
7477;SDS011;3780;42.424;25.636;2024-03-22T00:40:27;2.42;;;1.83;;
7477;SDS011;3780;42.424;25.636;2024-03-22T00:42:52;3.03;;;2.00;;
7477;SDS011;3780;42.424;25.636;2024-03-22T00:45:18;2.33;;;1.90;;
7477;SDS011;3780;42.424;25.636;2024-03-22T00:47:43;6.00;;;1.67;;
7477;SDS011;3780;42.424;25.636;2024-03-22T00:50:08;1.98;;;1.58;;
7477;SDS011;3780;42.424;25.636;2024-03-22T00:52:34;1.92;;;1.63;;
7477;SDS011;3780;42.424;25.636;2024-03-22T00:54:59;2.35;;;1.50;;
7477;SDS011;3780;42.424;25.636;2024-03-22T00:57:24;2.72;;;1.92;;
7477;SDS011;3780;42.424;25.636;2024-03-22T00:59:50;5.03;;;1.60;;
7477;SDS011;3780;42.424;25.636;2024-03-22T01:02:15;2.80;;;1.77;;
7477;SDS011;3780;42.424;25.636;2024-03-22T01:04:40;2.17;;;1.70;;
7477;SDS011;3780;42.424;25.636;2024-03-22T01:07:06;1.88;;;1.50;;
7477;SDS011;3780;42.424;25.636;2024-03-22T01:09:31;1.77;;;1.60;;
7477;SDS011;3780;42.424;25.636;2024-03-22T01:11:56;2.53;;;1.60;;
7477;SDS011;3780;42.424;25.636;2024-03-22T01:14:22;2.67;;;1.80;;
7477;SDS011;3780;42.424;25.636;2024-03-22T01:16:47;2.25;;;1.52;;
7477;SDS011;3780;42.424;25.636;2024-03-22T01:19:12;2.60;;;1.50;;
7477;SDS011;3780;42.424;25.636;2024-03-22T01:21:37;2.00;;;1.33;;
7477;SDS011;3780;42.424;25.636;2024-03-22T01:24:03;2.85;;;1.38;;
7477;SDS011;3780;42.424;25.636;2024-03-22T01:26:28;2.17;;;1.45;;
7477;SDS011;3780;42.424;25.636;2024-03-22T01:28:53;2.10;;;1.48;;
7477;SDS011;3780;42.424;25.636;2024-03-22T01:31:18;2.17;;;1.60;;
7477;SDS011;3780;42.424;25.636;2024-03-22T01:33:44;2.05;;;1.27;;
7477;SDS011;3780;42.424;25.636;2024-03-22T01:36:09;2.22;;;1.42;;
7477;SDS011;3780;42.424;25.636;2024-03-22T01:38:34;1.63;;;1.52;;
7477;SDS011;3780;42.424;25.636;2024-03-22T01:41:00;1.92;;;1.48;;
7477;SDS011;3780;42.424;25.636;2024-03-22T01:43:25;2.10;;;1.45;;
7477;SDS011;3780;42.424;25.636;2024-03-22T01:45:50;1.98;;;1.50;;
7477;SDS011;3780;42.424;25.636;2024-03-22T01:48:16;2.03;;;1.63;;
7477;SDS011;3780;42.424;25.636;2024-03-22T01:50:41;2.15;;;1.65;;
7477;SDS011;3780;42.424;25.636;2024-03-22T01:53:08;1.65;;;1.48;;
7477;SDS011;3780;42.424;25.636;2024-03-22T01:55:34;2.80;;;1.67;;
7477;SDS011;3780;42.424;25.636;2024-03-22T01:57:59;1.85;;;1.50;;
7477;SDS011;3780;42.424;25.636;2024-03-22T02:00:24;1.90;;;1.30;;
7477;SDS011;3780;42.424;25.636;2024-03-22T02:02:49;3.10;;;1.60;;
7477;SDS011;3780;42.424;25.636;2024-03-22T02:05:15;2.00;;;1.65;;
7477;SDS011;3780;42.424;25.636;2024-03-22T02:07:44;2.67;;;1.52;;
7477;SDS011;3780;42.424;25.636;2024-03-22T02:10:09;1.95;;;1.75;;
7477;SDS011;3780;42.424;25.636;2024-03-22T02:12:38;1.80;;;1.55;;
7477;SDS011;3780;42.424;25.636;2024-03-22T02:15:03;2.83;;;1.60;;
7477;SDS011;3780;42.424;25.636;2024-03-22T02:17:29;2.00;;;1.50;;
7477;SDS011;3780;42.424;25.636;2024-03-22T02:19:54;2.47;;;1.85;;
7477;SDS011;3780;42.424;25.636;2024-03-22T02:22:19;2.10;;;1.63;;
7477;SDS011;3780;42.424;25.636;2024-03-22T02:24:45;2.03;;;1.42;;
7477;SDS011;3780;42.424;25.636;2024-03-22T02:27:10;2.00;;;1.58;;
7477;SDS011;3780;42.424;25.636;2024-03-22T02:29:35;1.83;;;1.60;;
7477;SDS011;3780;42.424;25.636;2024-03-22T02:32:00;2.92;;;1.98;;
7477;SDS011;3780;42.424;25.636;2024-03-22T02:34:26;1.73;;;1.40;;
7477;SDS011;3780;42.424;25.636;2024-03-22T02:36:51;2.47;;;1.80;;
7477;SDS011;3780;42.424;25.636;2024-03-22T02:39:16;1.80;;;1.50;;
7477;SDS011;3780;42.424;25.636;2024-03-22T02:41:42;3.58;;;1.98;;
7477;SDS011;3780;42.424;25.636;2024-03-22T02:44:07;2.80;;;1.80;;
7477;SDS011;3780;42.424;25.636;2024-03-22T02:46:32;2.42;;;1.90;;
7477;SDS011;3780;42.424;25.636;2024-03-22T02:48:57;2.58;;;1.90;;
7477;SDS011;3780;42.424;25.636;2024-03-22T02:51:23;2.97;;;2.17;;
7477;SDS011;3780;42.424;25.636;2024-03-22T02:53:48;2.35;;;2.08;;
7477;SDS011;3780;42.424;25.636;2024-03-22T02:56:13;2.58;;;1.75;;
7477;SDS011;3780;42.424;25.636;2024-03-22T02:58:39;2.72;;;1.92;;
7477;SDS011;3780;42.424;25.636;2024-03-22T03:01:04;2.30;;;1.88;;
7477;SDS011;3780;42.424;25.636;2024-03-22T03:03:30;2.28;;;1.70;;
7477;SDS011;3780;42.424;25.636;2024-03-22T03:05:56;3.60;;;2.38;;
7477;SDS011;3780;42.424;25.636;2024-03-22T03:08:21;3.30;;;1.95;;
7477;SDS011;3780;42.424;25.636;2024-03-22T03:10:46;4.25;;;2.30;;
7477;SDS011;3780;42.424;25.636;2024-03-22T03:13:12;3.08;;;2.05;;
7477;SDS011;3780;42.424;25.636;2024-03-22T03:15:37;2.85;;;2.10;;
7477;SDS011;3780;42.424;25.636;2024-03-22T03:18:02;3.38;;;2.15;;
7477;SDS011;3780;42.424;25.636;2024-03-22T03:20:27;2.60;;;1.98;;
7477;SDS011;3780;42.424;25.636;2024-03-22T03:22:53;4.63;;;1.98;;
7477;SDS011;3780;42.424;25.636;2024-03-22T03:25:18;2.83;;;2.10;;
7477;SDS011;3780;42.424;25.636;2024-03-22T03:27:43;3.33;;;2.13;;
7477;SDS011;3780;42.424;25.636;2024-03-22T03:30:09;2.25;;;1.85;;
7477;SDS011;3780;42.424;25.636;2024-03-22T03:32:34;4.53;;;2.13;;
7477;SDS011;3780;42.424;25.636;2024-03-22T03:34:59;4.78;;;2.38;;
7477;SDS011;3780;42.424;25.636;2024-03-22T03:37:25;4.55;;;2.03;;
7477;SDS011;3780;42.424;25.636;2024-03-22T03:39:50;3.40;;;2.35;;
7477;SDS011;3780;42.424;25.636;2024-03-22T03:42:15;3.70;;;2.40;;
7477;SDS011;3780;42.424;25.636;2024-03-22T03:44:40;2.90;;;2.13;;
7477;SDS011;3780;42.424;25.636;2024-03-22T03:47:06;2.60;;;2.28;;
7477;SDS011;3780;42.424;25.636;2024-03-22T03:49:32;4.28;;;2.35;;
7477;SDS011;3780;42.424;25.636;2024-03-22T03:51:57;3.42;;;2.45;;
7477;SDS011;3780;42.424;25.636;2024-03-22T03:54:22;4.22;;;2.10;;
7477;SDS011;3780;42.424;25.636;2024-03-22T03:56:48;2.92;;;2.20;;
7477;SDS011;3780;42.424;25.636;2024-03-22T03:59:13;3.55;;;2.10;;
7477;SDS011;3780;42.424;25.636;2024-03-22T04:01:38;5.82;;;2.22;;
7477;SDS011;3780;42.424;25.636;2024-03-22T04:04:03;3.50;;;1.90;;
7477;SDS011;3780;42.424;25.636;2024-03-22T04:06:29;3.35;;;2.40;;
7477;SDS011;3780;42.424;25.636;2024-03-22T04:08:54;4.07;;;2.20;;
7477;SDS011;3780;42.424;25.636;2024-03-22T04:11:20;2.92;;;1.95;;
7477;SDS011;3780;42.424;25.636;2024-03-22T04:13:45;3.22;;;2.20;;
7477;SDS011;3780;42.424;25.636;2024-03-22T04:16:10;4.43;;;2.35;;
7477;SDS011;3780;42.424;25.636;2024-03-22T04:18:35;4.35;;;2.40;;
7477;SDS011;3780;42.424;25.636;2024-03-22T04:21:01;5.00;;;3.00;;
7477;SDS011;3780;42.424;25.636;2024-03-22T04:23:26;5.68;;;3.35;;
7477;SDS011;3780;42.424;25.636;2024-03-22T04:25:55;4.40;;;3.15;;
7477;SDS011;3780;42.424;25.636;2024-03-22T04:28:20;4.25;;;2.97;;
7477;SDS011;3780;42.424;25.636;2024-03-22T04:33:20;3.40;;;3.00;;
7477;SDS011;3780;42.424;25.636;2024-03-22T04:35:45;6.15;;;2.90;;
7477;SDS011;3780;42.424;25.636;2024-03-22T04:38:11;3.60;;;3.00;;
7477;SDS011;3780;42.424;25.636;2024-03-22T04:40:36;3.65;;;2.70;;
7477;SDS011;3780;42.424;25.636;2024-03-22T04:43:01;5.82;;;3.13;;
7477;SDS011;3780;42.424;25.636;2024-03-22T04:45:27;3.83;;;2.75;;
7477;SDS011;3780;42.424;25.636;2024-03-22T04:47:52;4.13;;;2.72;;
7477;SDS011;3780;42.424;25.636;2024-03-22T04:50:17;6.18;;;2.55;;
7477;SDS011;3780;42.424;25.636;2024-03-22T04:52:43;3.95;;;2.33;;
7477;SDS011;3780;42.424;25.636;2024-03-22T04:55:08;4.22;;;2.70;;
7477;SDS011;3780;42.424;25.636;2024-03-22T04:57:33;5.90;;;3.10;;
7477;SDS011;3780;42.424;25.636;2024-03-22T04:59:58;5.20;;;2.78;;
7477;SDS011;3780;42.424;25.636;2024-03-22T05:02:24;5.22;;;2.75;;
7477;SDS011;3780;42.424;25.636;2024-03-22T05:04:49;4.75;;;2.88;;
7477;SDS011;3780;42.424;25.636;2024-03-22T05:07:15;3.97;;;2.78;;
7477;SDS011;3780;42.424;25.636;2024-03-22T05:09:40;4.45;;;2.90;;
7477;SDS011;3780;42.424;25.636;2024-03-22T05:12:05;9.38;;;3.72;;
7477;SDS011;3780;42.424;25.636;2024-03-22T05:14:30;3.70;;;2.67;;
7477;SDS011;3780;42.424;25.636;2024-03-22T05:16:56;6.00;;;2.78;;
7477;SDS011;3780;42.424;25.636;2024-03-22T05:19:21;4.50;;;2.28;;
7477;SDS011;3780;42.424;25.636;2024-03-22T05:21:46;6.00;;;2.90;;
7477;SDS011;3780;42.424;25.636;2024-03-22T05:24:12;7.40;;;2.50;;
7477;SDS011;3780;42.424;25.636;2024-03-22T05:26:37;4.05;;;2.00;;
7477;SDS011;3780;42.424;25.636;2024-03-22T05:29:02;4.65;;;2.42;;
7477;SDS011;3780;42.424;25.636;2024-03-22T05:31:28;2.78;;;1.98;;
7477;SDS011;3780;42.424;25.636;2024-03-22T05:33:53;3.92;;;2.20;;
7477;SDS011;3780;42.424;25.636;2024-03-22T05:36:19;8.85;;;2.60;;
7477;SDS011;3780;42.424;25.636;2024-03-22T05:38:44;6.10;;;2.40;;
7477;SDS011;3780;42.424;25.636;2024-03-22T05:41:09;3.00;;;2.60;;
7477;SDS011;3780;42.424;25.636;2024-03-22T05:43:34;5.93;;;2.60;;
7477;SDS011;3780;42.424;25.636;2024-03-22T05:46:00;6.68;;;2.70;;
7477;SDS011;3780;42.424;25.636;2024-03-22T05:48:25;3.60;;;2.20;;
7477;SDS011;3780;42.424;25.636;2024-03-22T05:50:51;12.65;;;8.75;;
7477;SDS011;3780;42.424;25.636;2024-03-22T05:53:17;15.30;;;11.38;;
7477;SDS011;3780;42.424;25.636;2024-03-22T05:55:43;5.95;;;3.00;;
7477;SDS011;3780;42.424;25.636;2024-03-22T05:58:08;5.25;;;2.17;;
7477;SDS011;3780;42.424;25.636;2024-03-22T06:00:34;9.07;;;2.60;;
7477;SDS011;3780;42.424;25.636;2024-03-22T06:02:59;8.95;;;2.78;;
7477;SDS011;3780;42.424;25.636;2024-03-22T06:05:24;6.00;;;3.53;;
7477;SDS011;3780;42.424;25.636;2024-03-22T06:07:50;3.83;;;2.80;;
7477;SDS011;3780;42.424;25.636;2024-03-22T06:10:15;3.67;;;2.28;;
7477;SDS011;3780;42.424;25.636;2024-03-22T06:12:41;12.48;;;8.23;;
7477;SDS011;3780;42.424;25.636;2024-03-22T06:15:09;5.35;;;1.80;;
7477;SDS011;3780;42.424;25.636;2024-03-22T06:17:34;4.10;;;2.50;;
7477;SDS011;3780;42.424;25.636;2024-03-22T06:20:00;8.27;;;1.92;;
7477;SDS011;3780;42.424;25.636;2024-03-22T06:22:26;2.80;;;1.85;;
7477;SDS011;3780;42.424;25.636;2024-03-22T06:24:51;3.10;;;1.48;;
7477;SDS011;3780;42.424;25.636;2024-03-22T06:27:16;5.15;;;1.52;;
7477;SDS011;3780;42.424;25.636;2024-03-22T06:29:42;6.57;;;2.47;;
7477;SDS011;3780;42.424;25.636;2024-03-22T06:32:07;7.28;;;1.90;;
7477;SDS011;3780;42.424;25.636;2024-03-22T06:34:33;4.53;;;1.77;;
7477;SDS011;3780;42.424;25.636;2024-03-22T06:36:58;4.60;;;3.20;;
7477;SDS011;3780;42.424;25.636;2024-03-22T06:39:23;6.07;;;4.10;;
7477;SDS011;3780;42.424;25.636;2024-03-22T06:41:49;4.97;;;3.67;;
7477;SDS011;3780;42.424;25.636;2024-03-22T06:44:14;10.82;;;4.80;;
7477;SDS011;3780;42.424;25.636;2024-03-22T06:46:39;7.18;;;4.07;;
7477;SDS011;3780;42.424;25.636;2024-03-22T06:49:05;7.47;;;4.20;;
7477;SDS011;3780;42.424;25.636;2024-03-22T06:51:30;6.25;;;3.97;;
7477;SDS011;3780;42.424;25.636;2024-03-22T06:53:55;8.30;;;5.07;;
7477;SDS011;3780;42.424;25.636;2024-03-22T06:56:20;8.48;;;4.60;;
7477;SDS011;3780;42.424;25.636;2024-03-22T06:58:46;6.47;;;4.22;;
7477;SDS011;3780;42.424;25.636;2024-03-22T07:01:11;7.45;;;4.45;;
7477;SDS011;3780;42.424;25.636;2024-03-22T07:03:37;9.45;;;4.88;;
7477;SDS011;3780;42.424;25.636;2024-03-22T07:06:02;14.93;;;4.53;;
7477;SDS011;3780;42.424;25.636;2024-03-22T07:08:28;11.90;;;3.80;;
7477;SDS011;3780;42.424;25.636;2024-03-22T07:10:53;10.82;;;4.18;;
7477;SDS011;3780;42.424;25.636;2024-03-22T07:13:19;5.93;;;3.50;;
7477;SDS011;3780;42.424;25.636;2024-03-22T07:15:45;7.38;;;3.72;;
7477;SDS011;3780;42.424;25.636;2024-03-22T07:18:12;6.50;;;4.22;;
7477;SDS011;3780;42.424;25.636;2024-03-22T07:20:38;5.68;;;3.75;;
7477;SDS011;3780;42.424;25.636;2024-03-22T07:23:03;5.25;;;3.60;;
7477;SDS011;3780;42.424;25.636;2024-03-22T07:25:29;5.43;;;3.47;;
7477;SDS011;3780;42.424;25.636;2024-03-22T07:27:54;8.35;;;3.42;;
7477;SDS011;3780;42.424;25.636;2024-03-22T07:30:20;6.90;;;4.20;;
7477;SDS011;3780;42.424;25.636;2024-03-22T07:32:46;8.75;;;5.55;;
7477;SDS011;3780;42.424;25.636;2024-03-22T07:35:12;7.65;;;3.50;;
7477;SDS011;3780;42.424;25.636;2024-03-22T07:37:37;8.20;;;3.90;;
7477;SDS011;3780;42.424;25.636;2024-03-22T07:40:03;8.23;;;3.05;;
7477;SDS011;3780;42.424;25.636;2024-03-22T07:42:30;8.25;;;3.78;;
7477;SDS011;3780;42.424;25.636;2024-03-22T07:44:55;9.80;;;4.53;;
7477;SDS011;3780;42.424;25.636;2024-03-22T07:47:21;11.00;;;3.63;;
7477;SDS011;3780;42.424;25.636;2024-03-22T07:49:46;4.78;;;3.00;;
7477;SDS011;3780;42.424;25.636;2024-03-22T07:52:11;6.40;;;3.33;;
7477;SDS011;3780;42.424;25.636;2024-03-22T07:54:37;4.80;;;3.10;;
7477;SDS011;3780;42.424;25.636;2024-03-22T07:57:02;4.60;;;3.08;;
7477;SDS011;3780;42.424;25.636;2024-03-22T07:59:29;5.05;;;3.08;;
7477;SDS011;3780;42.424;25.636;2024-03-22T08:01:54;7.32;;;3.53;;
7477;SDS011;3780;42.424;25.636;2024-03-22T08:04:19;5.57;;;3.08;;
7477;SDS011;3780;42.424;25.636;2024-03-22T08:06:45;7.45;;;3.42;;
7477;SDS011;3780;42.424;25.636;2024-03-22T08:09:10;4.85;;;3.20;;
7477;SDS011;3780;42.424;25.636;2024-03-22T08:11:36;6.18;;;3.20;;
7477;SDS011;3780;42.424;25.636;2024-03-22T08:14:01;7.40;;;3.80;;
7477;SDS011;3780;42.424;25.636;2024-03-22T08:16:28;4.55;;;2.97;;
7477;SDS011;3780;42.424;25.636;2024-03-22T08:18:54;7.60;;;3.78;;
7477;SDS011;3780;42.424;25.636;2024-03-22T08:21:19;4.95;;;2.75;;
7477;SDS011;3780;42.424;25.636;2024-03-22T08:23:44;4.93;;;3.05;;
7477;SDS011;3780;42.424;25.636;2024-03-22T08:26:10;15.70;;;3.95;;
7477;SDS011;3780;42.424;25.636;2024-03-22T08:28:35;7.55;;;4.75;;
7477;SDS011;3780;42.424;25.636;2024-03-22T08:31:03;3.65;;;2.90;;
7477;SDS011;3780;42.424;25.636;2024-03-22T08:33:29;5.20;;;3.10;;
7477;SDS011;3780;42.424;25.636;2024-03-22T08:35:54;8.13;;;4.32;;
7477;SDS011;3780;42.424;25.636;2024-03-22T08:38:19;7.70;;;3.00;;
7477;SDS011;3780;42.424;25.636;2024-03-22T08:40:44;6.57;;;3.28;;
7477;SDS011;3780;42.424;25.636;2024-03-22T08:43:10;9.77;;;4.35;;
7477;SDS011;3780;42.424;25.636;2024-03-22T08:45:35;10.27;;;3.50;;
7477;SDS011;3780;42.424;25.636;2024-03-22T08:48:00;3.83;;;2.95;;
7477;SDS011;3780;42.424;25.636;2024-03-22T08:50:26;5.38;;;3.60;;
7477;SDS011;3780;42.424;25.636;2024-03-22T08:52:51;15.07;;;7.05;;
7477;SDS011;3780;42.424;25.636;2024-03-22T08:55:16;5.47;;;3.25;;
7477;SDS011;3780;42.424;25.636;2024-03-22T08:57:42;3.25;;;2.53;;
7477;SDS011;3780;42.424;25.636;2024-03-22T09:00:07;4.70;;;2.53;;
7477;SDS011;3780;42.424;25.636;2024-03-22T09:02:33;5.97;;;2.53;;
7477;SDS011;3780;42.424;25.636;2024-03-22T09:04:59;4.45;;;2.47;;
7477;SDS011;3780;42.424;25.636;2024-03-22T09:07:24;4.18;;;2.47;;
7477;SDS011;3780;42.424;25.636;2024-03-22T09:09:49;4.93;;;2.50;;
7477;SDS011;3780;42.424;25.636;2024-03-22T09:12:15;3.60;;;2.35;;
7477;SDS011;3780;42.424;25.636;2024-03-22T09:14:40;5.40;;;3.55;;
7477;SDS011;3780;42.424;25.636;2024-03-22T09:17:05;3.70;;;2.38;;
7477;SDS011;3780;42.424;25.636;2024-03-22T09:19:31;4.63;;;2.63;;
7477;SDS011;3780;42.424;25.636;2024-03-22T09:21:56;3.63;;;2.38;;
7477;SDS011;3780;42.424;25.636;2024-03-22T09:24:22;4.28;;;2.50;;
7477;SDS011;3780;42.424;25.636;2024-03-22T09:26:47;2.47;;;2.08;;
7477;SDS011;3780;42.424;25.636;2024-03-22T09:29:15;3.55;;;2.80;;
7477;SDS011;3780;42.424;25.636;2024-03-22T09:31:40;4.32;;;2.28;;
7477;SDS011;3780;42.424;25.636;2024-03-22T09:34:06;6.30;;;2.80;;
7477;SDS011;3780;42.424;25.636;2024-03-22T09:36:31;3.63;;;2.70;;
7477;SDS011;3780;42.424;25.636;2024-03-22T09:39:00;4.47;;;3.05;;
7477;SDS011;3780;42.424;25.636;2024-03-22T09:41:25;4.43;;;2.47;;
7477;SDS011;3780;42.424;25.636;2024-03-22T09:43:51;5.43;;;2.92;;
7477;SDS011;3780;42.424;25.636;2024-03-22T09:46:17;7.20;;;3.15;;
7477;SDS011;3780;42.424;25.636;2024-03-22T09:48:43;20.13;;;3.67;;
7477;SDS011;3780;42.424;25.636;2024-03-22T09:51:10;9.57;;;2.70;;
7477;SDS011;3780;42.424;25.636;2024-03-22T09:53:35;4.60;;;2.25;;
7477;SDS011;3780;42.424;25.636;2024-03-22T09:56:01;7.03;;;2.50;;
7477;SDS011;3780;42.424;25.636;2024-03-22T09:58:27;4.65;;;2.40;;
7477;SDS011;3780;42.424;25.636;2024-03-22T10:00:52;6.28;;;2.83;;
7477;SDS011;3780;42.424;25.636;2024-03-22T10:03:18;4.53;;;2.42;;
7477;SDS011;3780;42.424;25.636;2024-03-22T10:05:43;4.22;;;2.38;;
7477;SDS011;3780;42.424;25.636;2024-03-22T10:08:09;6.28;;;2.30;;
7477;SDS011;3780;42.424;25.636;2024-03-22T10:10:34;4.10;;;2.38;;
7477;SDS011;3780;42.424;25.636;2024-03-22T10:13:03;15.15;;;2.97;;
7477;SDS011;3780;42.424;25.636;2024-03-22T10:15:29;3.47;;;2.47;;
7477;SDS011;3780;42.424;25.636;2024-03-22T10:17:56;4.97;;;2.47;;
7477;SDS011;3780;42.424;25.636;2024-03-22T10:20:22;4.57;;;2.60;;
7477;SDS011;3780;42.424;25.636;2024-03-22T10:25:18;5.55;;;2.05;;
7477;SDS011;3780;42.424;25.636;2024-03-22T10:27:44;3.60;;;2.30;;
7477;SDS011;3780;42.424;25.636;2024-03-22T10:30:09;3.30;;;2.20;;
7477;SDS011;3780;42.424;25.636;2024-03-22T10:32:38;2.58;;;2.13;;
7477;SDS011;3780;42.424;25.636;2024-03-22T10:35:03;11.70;;;10.35;;
7477;SDS011;3780;42.424;25.636;2024-03-22T10:37:35;2.70;;;2.03;;
7477;SDS011;3780;42.424;25.636;2024-03-22T10:40:01;3.10;;;2.05;;
7477;SDS011;3780;42.424;25.636;2024-03-22T10:42:27;4.70;;;1.92;;
7477;SDS011;3780;42.424;25.636;2024-03-22T10:44:53;5.38;;;2.40;;
7477;SDS011;3780;42.424;25.636;2024-03-22T10:47:18;2.67;;;1.98;;
7477;SDS011;3780;42.424;25.636;2024-03-22T10:49:45;6.38;;;2.30;;
7477;SDS011;3780;42.424;25.636;2024-03-22T10:52:11;2.97;;;1.70;;
7477;SDS011;3780;42.424;25.636;2024-03-22T10:54:40;3.50;;;1.90;;
7477;SDS011;3780;42.424;25.636;2024-03-22T10:57:11;2.85;;;2.00;;
7477;SDS011;3780;42.424;25.636;2024-03-22T10:59:36;6.05;;;2.45;;
7477;SDS011;3780;42.424;25.636;2024-03-22T11:02:03;7.10;;;2.50;;
7477;SDS011;3780;42.424;25.636;2024-03-22T11:04:29;5.35;;;3.00;;
7477;SDS011;3780;42.424;25.636;2024-03-22T11:06:56;5.63;;;1.80;;
7477;SDS011;3780;42.424;25.636;2024-03-22T11:09:22;4.82;;;2.08;;
7477;SDS011;3780;42.424;25.636;2024-03-22T11:11:48;6.28;;;1.92;;
7477;SDS011;3780;42.424;25.636;2024-03-22T11:14:14;2.22;;;1.63;;
7477;SDS011;3780;42.424;25.636;2024-03-22T11:16:42;3.25;;;2.03;;
7477;SDS011;3780;42.424;25.636;2024-03-22T11:19:07;3.10;;;2.15;;
7477;SDS011;3780;42.424;25.636;2024-03-22T11:21:33;3.92;;;2.13;;
7477;SDS011;3780;42.424;25.636;2024-03-22T11:24:00;3.42;;;1.95;;
7477;SDS011;3780;42.424;25.636;2024-03-22T11:26:25;3.22;;;1.63;;
7477;SDS011;3780;42.424;25.636;2024-03-22T11:28:51;6.28;;;1.50;;
7477;SDS011;3780;42.424;25.636;2024-03-22T11:31:16;3.10;;;1.63;;
7477;SDS011;3780;42.424;25.636;2024-03-22T11:33:41;2.78;;;1.30;;
7477;SDS011;3780;42.424;25.636;2024-03-22T11:36:07;4.10;;;1.00;;
7477;SDS011;3780;42.424;25.636;2024-03-22T11:38:33;3.28;;;1.10;;
7477;SDS011;3780;42.424;25.636;2024-03-22T11:40:59;1.67;;;0.90;;
7477;SDS011;3780;42.424;25.636;2024-03-22T11:43:27;2.45;;;0.57;;
7477;SDS011;3780;42.424;25.636;2024-03-22T11:45:54;1.08;;;0.73;;
7477;SDS011;3780;42.424;25.636;2024-03-22T11:48:19;2.28;;;1.20;;
7477;SDS011;3780;42.424;25.636;2024-03-22T11:50:45;1.45;;;0.73;;
7477;SDS011;3780;42.424;25.636;2024-03-22T11:53:11;1.60;;;0.90;;
7477;SDS011;3780;42.424;25.636;2024-03-22T11:55:36;3.30;;;0.85;;
7477;SDS011;3780;42.424;25.636;2024-03-22T11:58:01;6.75;;;1.15;;
7477;SDS011;3780;42.424;25.636;2024-03-22T12:00:27;1.30;;;0.75;;
7477;SDS011;3780;42.424;25.636;2024-03-22T12:02:52;1.40;;;0.90;;
7477;SDS011;3780;42.424;25.636;2024-03-22T12:05:18;1.48;;;1.00;;
7477;SDS011;3780;42.424;25.636;2024-03-22T12:07:44;1.33;;;0.77;;
7477;SDS011;3780;42.424;25.636;2024-03-22T12:10:09;1.55;;;0.88;;
7477;SDS011;3780;42.424;25.636;2024-03-22T12:12:34;1.70;;;0.68;;
7477;SDS011;3780;42.424;25.636;2024-03-22T12:15:01;2.67;;;0.88;;
7477;SDS011;3780;42.424;25.636;2024-03-22T12:17:26;2.15;;;0.98;;
7477;SDS011;3780;42.424;25.636;2024-03-22T12:19:52;3.78;;;1.15;;
7477;SDS011;3780;42.424;25.636;2024-03-22T12:22:18;2.08;;;1.38;;
7477;SDS011;3780;42.424;25.636;2024-03-22T12:24:43;2.38;;;1.52;;
7477;SDS011;3780;42.424;25.636;2024-03-22T12:27:08;2.45;;;1.48;;
7477;SDS011;3780;42.424;25.636;2024-03-22T12:29:34;1.90;;;1.40;;
7477;SDS011;3780;42.424;25.636;2024-03-22T12:31:59;3.15;;;1.35;;
7477;SDS011;3780;42.424;25.636;2024-03-22T12:36:58;2.10;;;1.38;;
7477;SDS011;3780;42.424;25.636;2024-03-22T12:39:23;3.75;;;1.27;;
7477;SDS011;3780;42.424;25.636;2024-03-22T12:41:49;4.15;;;1.60;;
7477;SDS011;3780;42.424;25.636;2024-03-22T12:44:14;2.55;;;1.23;;
7477;SDS011;3780;42.424;25.636;2024-03-22T12:46:39;2.83;;;1.38;;
7477;SDS011;3780;42.424;25.636;2024-03-22T12:49:07;2.08;;;1.42;;
7477;SDS011;3780;42.424;25.636;2024-03-22T12:51:33;5.32;;;1.38;;
7477;SDS011;3780;42.424;25.636;2024-03-22T12:53:58;2.85;;;1.55;;
7477;SDS011;3780;42.424;25.636;2024-03-22T12:56:23;2.65;;;1.60;;
7477;SDS011;3780;42.424;25.636;2024-03-22T12:58:49;3.97;;;1.60;;
7477;SDS011;3780;42.424;25.636;2024-03-22T13:01:14;3.63;;;1.23;;
7477;SDS011;3780;42.424;25.636;2024-03-22T13:03:40;2.83;;;0.90;;
7477;SDS011;3780;42.424;25.636;2024-03-22T13:06:05;3.33;;;1.20;;
7477;SDS011;3780;42.424;25.636;2024-03-22T13:08:31;1.75;;;1.20;;
7477;SDS011;3780;42.424;25.636;2024-03-22T13:10:56;2.80;;;1.25;;
7477;SDS011;3780;42.424;25.636;2024-03-22T13:13:22;1.45;;;1.10;;
7477;SDS011;3780;42.424;25.636;2024-03-22T13:15:47;1.92;;;1.13;;
7477;SDS011;3780;42.424;25.636;2024-03-22T13:18:12;2.75;;;1.30;;
7477;SDS011;3780;42.424;25.636;2024-03-22T13:20:38;1.65;;;1.10;;
7477;SDS011;3780;42.424;25.636;2024-03-22T13:23:03;3.40;;;1.40;;
7477;SDS011;3780;42.424;25.636;2024-03-22T13:25:29;2.58;;;1.40;;
7477;SDS011;3780;42.424;25.636;2024-03-22T13:27:54;2.45;;;1.27;;
7477;SDS011;3780;42.424;25.636;2024-03-22T13:30:20;3.53;;;1.10;;
7477;SDS011;3780;42.424;25.636;2024-03-22T13:32:45;1.50;;;1.08;;
7477;SDS011;3780;42.424;25.636;2024-03-22T13:35:10;4.15;;;1.33;;
7477;SDS011;3780;42.424;25.636;2024-03-22T13:37:36;2.05;;;1.20;;
7477;SDS011;3780;42.424;25.636;2024-03-22T13:40:01;2.22;;;0.77;;
7477;SDS011;3780;42.424;25.636;2024-03-22T13:42:27;3.05;;;1.52;;
7477;SDS011;3780;42.424;25.636;2024-03-22T13:44:52;3.08;;;1.73;;
7477;SDS011;3780;42.424;25.636;2024-03-22T13:47:17;7.88;;;4.78;;
7477;SDS011;3780;42.424;25.636;2024-03-22T13:49:43;3.33;;;1.80;;
7477;SDS011;3780;42.424;25.636;2024-03-22T13:52:10;4.30;;;1.17;;
7477;SDS011;3780;42.424;25.636;2024-03-22T13:54:35;1.50;;;1.00;;
7477;SDS011;3780;42.424;25.636;2024-03-22T13:57:00;3.83;;;1.20;;
7477;SDS011;3780;42.424;25.636;2024-03-22T13:59:26;4.00;;;1.40;;
7477;SDS011;3780;42.424;25.636;2024-03-22T14:01:52;11.38;;;2.03;;
7477;SDS011;3780;42.424;25.636;2024-03-22T14:04:18;2.97;;;1.60;;
7477;SDS011;3780;42.424;25.636;2024-03-22T14:06:44;3.00;;;1.58;;
7477;SDS011;3780;42.424;25.636;2024-03-22T14:09:10;2.45;;;1.38;;
7477;SDS011;3780;42.424;25.636;2024-03-22T14:11:38;3.67;;;1.60;;
7477;SDS011;3780;42.424;25.636;2024-03-22T14:14:03;4.60;;;1.90;;
7477;SDS011;3780;42.424;25.636;2024-03-22T14:16:28;3.35;;;1.58;;
7477;SDS011;3780;42.424;25.636;2024-03-22T14:18:55;3.45;;;1.92;;
7477;SDS011;3780;42.424;25.636;2024-03-22T14:21:20;4.85;;;1.88;;
7477;SDS011;3780;42.424;25.636;2024-03-22T14:23:48;4.90;;;2.15;;
7477;SDS011;3780;42.424;25.636;2024-03-22T14:26:15;4.53;;;1.35;;
7477;SDS011;3780;42.424;25.636;2024-03-22T14:28:40;4.40;;;1.40;;
7477;SDS011;3780;42.424;25.636;2024-03-22T14:31:06;3.85;;;1.50;;
7477;SDS011;3780;42.424;25.636;2024-03-22T14:33:33;6.07;;;1.48;;
7477;SDS011;3780;42.424;25.636;2024-03-22T14:35:58;4.15;;;1.52;;
7477;SDS011;3780;42.424;25.636;2024-03-22T14:38:24;3.45;;;1.50;;
7477;SDS011;3780;42.424;25.636;2024-03-22T14:40:49;3.67;;;2.53;;
7477;SDS011;3780;42.424;25.636;2024-03-22T14:43:15;1.90;;;1.30;;
7477;SDS011;3780;42.424;25.636;2024-03-22T14:45:40;4.38;;;1.50;;
7477;SDS011;3780;42.424;25.636;2024-03-22T14:48:05;4.20;;;1.60;;
7477;SDS011;3780;42.424;25.636;2024-03-22T14:50:34;3.38;;;1.10;;
7477;SDS011;3780;42.424;25.636;2024-03-22T14:53:00;2.45;;;1.20;;
7477;SDS011;3780;42.424;25.636;2024-03-22T14:55:25;3.67;;;1.90;;
7477;SDS011;3780;42.424;25.636;2024-03-22T14:57:50;6.05;;;1.60;;